Time;durP1;ratioP1;P1;durP2;ratioP2;P2;SDS_P1;SDS_P2;PMS_P1;PMS_P2;Temp;Humidity;BMP_temperature;BMP_pressure;BME280_temperature;BME280_humidity;BME280_pressure;Samples;Min_cycle;Max_cycle;Signal;HPM_P1;HPM_P2
2023/03/30 00:00:45;;;;;;;9.32;5.60;;;11.70;84.30;;;;;;5045983;28;20128;-77
2023/03/30 00:03:12;;;;;;;11.77;5.90;;;11.70;84.40;;;;;;5048117;28;20144;-77
2023/03/30 00:05:41;;;;;;;9.90;5.50;;;11.70;84.30;;;;;;5046474;28;20042;-78
2023/03/30 00:08:10;;;;;;;9.70;5.70;;;11.70;84.30;;;;;;5042935;28;20053;-78
2023/03/30 00:10:38;;;;;;;9.93;5.70;;;11.70;84.60;;;;;;5044198;28;20264;-78
2023/03/30 00:13:06;;;;;;;9.43;5.47;;;11.70;84.70;;;;;;5046842;28;20049;-78
2023/03/30 00:15:34;;;;;;;9.75;5.55;;;11.70;84.70;;;;;;5059064;28;20049;-78
2023/03/30 00:18:02;;;;;;;11.15;5.63;;;11.70;84.50;;;;;;5067057;28;20053;-78
2023/03/30 00:20:31;;;;;;;9.83;5.47;;;11.70;84.60;;;;;;5057713;28;20042;-78
2023/03/30 00:22:59;;;;;;;10.02;5.05;;;11.80;84.70;;;;;;5044966;28;20264;-78
2023/03/30 00:25:29;;;;;;;10.25;4.55;;;11.80;84.60;;;;;;5050946;28;20132;-78
2023/03/30 00:27:56;;;;;;;9.95;4.70;;;11.90;84.50;;;;;;5041003;28;20553;-78
2023/03/30 00:30:23;;;;;;;11.63;5.20;;;11.90;84.50;;;;;;5031639;28;20609;-78
2023/03/30 00:32:50;;;;;;;9.20;5.03;;;11.90;84.50;;;;;;5038799;28;20489;-78
2023/03/30 00:35:18;;;;;;;9.93;5.10;;;11.90;84.40;;;;;;5032712;28;20273;-78
2023/03/30 00:37:48;;;;;;;9.25;4.43;;;11.90;84.40;;;;;;5048267;28;20094;-78
2023/03/30 00:40:17;;;;;;;9.05;4.38;;;11.90;84.20;;;;;;5051666;28;20057;-78
2023/03/30 00:42:46;;;;;;;10.00;4.97;;;11.90;84.20;;;;;;5029284;28;20061;-78
2023/03/30 00:45:23;;;;;;;9.63;4.50;;;11.90;84.00;;;;;;5027210;28;20058;-78
2023/03/30 00:47:55;;;;;;;8.13;4.68;;;12.00;84.00;;;;;;5032687;28;20238;-78
2023/03/30 00:50:24;;;;;;;8.75;4.55;;;12.00;83.80;;;;;;5039744;28;20041;-78
2023/03/30 00:52:55;;;;;;;9.43;4.47;;;12.00;83.70;;;;;;5032546;28;20128;-78
2023/03/30 00:55:26;;;;;;;8.68;4.80;;;12.00;83.70;;;;;;5043474;28;20049;-78
2023/03/30 00:57:55;;;;;;;8.33;4.67;;;12.00;83.60;;;;;;5030968;28;20056;-78
2023/03/30 01:00:23;;;;;;;7.72;3.90;;;12.00;83.60;;;;;;5038823;28;20379;-78
2023/03/30 01:02:57;;;;;;;8.73;4.57;;;12.00;83.60;;;;;;5047166;28;20062;-78
2023/03/30 01:05:27;;;;;;;10.30;4.55;;;12.00;83.50;;;;;;5030176;28;20045;-78
2023/03/30 01:07:56;;;;;;;8.27;4.13;;;12.00;83.40;;;;;;5021598;28;20069;-78
2023/03/30 01:10:24;;;;;;;11.43;4.67;;;12.10;83.30;;;;;;5037319;28;20054;-78
2023/03/30 01:12:51;;;;;;;7.63;4.15;;;12.10;83.40;;;;;;5028723;28;20336;-77
2023/03/30 01:15:22;;;;;;;8.57;4.55;;;12.10;83.20;;;;;;5048231;28;20088;-78
2023/03/30 01:18:07;;;;;;;10.65;4.78;;;12.10;83.20;;;;;;5043897;28;20156;-77
2023/03/30 01:21:16;;;;;;;11.15;4.50;;;12.10;83.10;;;;;;5044220;28;20041;-78
2023/03/30 01:24:14;;;;;;;9.60;4.70;;;12.10;83.10;;;;;;5039436;28;20078;-78
2023/03/30 01:26:52;;;;;;;8.10;4.20;;;12.10;83.00;;;;;;5038792;28;21160;-77
2023/03/30 01:29:42;;;;;;;8.50;4.15;;;12.10;82.90;;;;;;5037887;28;20075;-78
2023/03/30 01:32:48;;;;;;;9.60;4.45;;;12.20;82.80;;;;;;5029149;28;20156;-78
2023/03/30 01:35:49;;;;;;;9.20;4.32;;;12.20;82.60;;;;;;5050780;28;20064;-78
2023/03/30 01:38:56;;;;;;;9.37;4.33;;;12.20;82.40;;;;;;5045868;28;20081;-78
2023/03/30 01:41:33;;;;;;;10.95;3.92;;;12.20;82.30;;;;;;4999574;28;20756;-78
2023/03/30 01:44:04;;;;;;;7.53;3.63;;;12.30;82.20;;;;;;5041015;28;20493;-78
2023/03/30 01:46:34;;;;;;;9.00;3.88;;;12.30;82.20;;;;;;5048216;28;20140;-78
2023/03/30 01:49:14;;;;;;;7.28;3.95;;;12.30;82.20;;;;;;5049193;28;20080;-78
2023/03/30 01:51:47;;;;;;;8.67;4.10;;;12.30;82.10;;;;;;5042465;28;20499;-78
2023/03/30 01:54:18;;;;;;;8.50;4.22;;;12.30;82.10;;;;;;5029133;28;20308;-78
2023/03/30 01:56:54;;;;;;;10.70;4.10;;;12.30;82.00;;;;;;5039544;28;20057;-78
2023/03/30 01:59:27;;;;;;;9.63;3.75;;;12.40;81.90;;;;;;5027794;28;20137;-78
2023/03/30 02:02:03;;;;;;;10.90;4.20;;;12.40;81.90;;;;;;5027916;28;20136;-78
2023/03/30 02:04:37;;;;;;;7.63;3.93;;;12.40;81.80;;;;;;5029881;28;20053;-78
2023/03/30 02:07:09;;;;;;;9.77;4.35;;;12.40;81.70;;;;;;5027221;28;20280;-78
2023/03/30 02:09:39;;;;;;;8.10;3.95;;;12.40;81.60;;;;;;5039960;28;20515;-78
2023/03/30 02:12:10;;;;;;;8.30;3.97;;;12.50;81.70;;;;;;5043709;28;20048;-78
2023/03/30 02:14:39;;;;;;;7.85;3.80;;;12.40;81.60;;;;;;5046538;28;20156;-78
2023/03/30 02:17:12;;;;;;;9.60;4.03;;;12.40;81.60;;;;;;5031860;28;20909;-77
2023/03/30 02:19:40;;;;;;;9.70;3.65;;;12.50;81.70;;;;;;5031306;28;20327;-78
2023/03/30 02:22:09;;;;;;;9.82;4.10;;;12.40;81.70;;;;;;5031568;28;20064;-78
2023/03/30 02:24:37;;;;;;;9.38;4.45;;;12.40;81.70;;;;;;5050174;28;20077;-78
2023/03/30 02:27:04;;;;;;;8.85;4.15;;;12.40;81.60;;;;;;5031240;28;20069;-78
2023/03/30 02:29:35;;;;;;;8.10;4.17;;;12.40;81.50;;;;;;5045163;28;20925;-78
2023/03/30 02:32:02;;;;;;;8.27;3.60;;;12.40;81.50;;;;;;5038010;28;20260;-78
2023/03/30 02:34:51;;;;;;;7.50;3.83;;;12.40;81.40;;;;;;5031360;28;20053;-78
2023/03/30 02:37:32;;;;;;;9.52;4.07;;;12.40;81.20;;;;;;5030647;28;20103;-78
2023/03/30 02:40:15;;;;;;;9.68;3.88;;;12.40;81.10;;;;;;5026235;28;20049;-78
2023/03/30 02:42:54;;;;;;;6.90;3.70;;;12.40;80.90;;;;;;5030848;28;20053;-78
2023/03/30 02:45:35;;;;;;;8.13;3.65;;;12.40;80.80;;;;;;5022590;28;20311;-78
2023/03/30 02:48:15;;;;;;;7.82;3.97;;;12.40;80.70;;;;;;5047616;28;20053;-78
2023/03/30 02:50:49;;;;;;;7.63;3.45;;;12.40;80.50;;;;;;5043783;28;20163;-78
2023/03/30 02:53:44;;;;;;;7.95;3.15;;;12.50;80.30;;;;;;5038475;28;20054;-78
2023/03/30 02:56:21;;;;;;;7.60;3.80;;;12.40;80.10;;;;;;5030973;28;20080;-78
2023/03/30 02:59:00;;;;;;;8.43;3.50;;;12.50;80.10;;;;;;5030727;28;20264;-78
2023/03/30 03:01:35;;;;;;;7.72;3.55;;;12.40;79.80;;;;;;5049999;28;20076;-78
2023/03/30 03:04:11;;;;;;;9.57;3.33;;;12.40;79.60;;;;;;5046647;28;20100;-78
2023/03/30 03:06:51;;;;;;;9.50;3.53;;;12.40;79.30;;;;;;5029258;28;20053;-78
2023/03/30 03:09:19;;;;;;;7.50;2.47;;;12.40;79.10;;;;;;5027220;28;20084;-78
2023/03/30 03:11:46;;;;;;;7.22;3.33;;;12.50;78.70;;;;;;5024981;28;20285;-78
2023/03/30 03:14:14;;;;;;;7.82;2.80;;;12.50;78.60;;;;;;5032068;28;20132;-78
2023/03/30 03:16:42;;;;;;;7.13;2.95;;;12.50;78.40;;;;;;5032071;28;20099;-78
2023/03/30 03:19:16;;;;;;;7.25;3.05;;;12.50;78.30;;;;;;5032106;28;20053;-78
2023/03/30 03:21:47;;;;;;;8.13;3.20;;;12.50;78.00;;;;;;5048698;28;20057;-78
2023/03/30 03:24:16;;;;;;;7.72;3.25;;;12.50;77.80;;;;;;5029587;28;21213;-78
2023/03/30 03:27:01;;;;;;;8.07;3.15;;;12.50;77.70;;;;;;5048496;28;20045;-78
2023/03/30 03:29:35;;;;;;;6.85;2.70;;;12.50;77.60;;;;;;5029960;28;20052;-78
2023/03/30 03:32:04;;;;;;;7.88;3.00;;;12.50;77.60;;;;;;5030115;28;20097;-78
2023/03/30 03:34:43;;;;;;;8.10;3.20;;;12.50;77.70;;;;;;5024974;28;20054;-78
2023/03/30 03:37:36;;;;;;;7.65;3.08;;;12.50;77.70;;;;;;5045641;28;20304;-78
2023/03/30 03:40:05;;;;;;;7.38;2.58;;;12.50;77.70;;;;;;5053738;28;20593;-78
2023/03/30 03:42:33;;;;;;;8.95;2.70;;;12.60;77.60;;;;;;5035370;28;20104;-78
2023/03/30 03:45:10;;;;;;;9.65;2.63;;;12.60;77.60;;;;;;5030571;28;20556;-78
2023/03/30 03:47:50;;;;;;;8.70;2.50;;;12.70;77.40;;;;;;5046678;28;20064;-78
2023/03/30 03:50:19;;;;;;;6.72;2.63;;;12.70;77.40;;;;;;5029495;28;20344;-78
2023/03/30 03:52:47;;;;;;;6.13;2.58;;;12.70;77.40;;;;;;5043235;28;20080;-78
2023/03/30 03:55:16;;;;;;;6.90;2.83;;;12.70;77.50;;;;;;5040204;28;20573;-78
2023/03/30 03:57:45;;;;;;;8.05;2.83;;;12.70;77.30;;;;;;5026840;28;20512;-78
2023/03/30 04:00:16;;;;;;;7.60;2.70;;;12.80;77.10;;;;;;5022457;28;20522;-78
2023/03/30 04:02:50;;;;;;;7.22;2.53;;;12.80;77.10;;;;;;5029096;28;20961;-78
2023/03/30 04:05:17;;;;;;;6.55;2.40;;;12.80;77.10;;;;;;5031795;28;20092;-78
2023/03/30 04:07:45;;;;;;;8.45;2.60;;;12.80;77.20;;;;;;5044820;28;20112;-78
2023/03/30 04:10:13;;;;;;;6.85;2.20;;;12.90;77.10;;;;;;5032232;28;20058;-78
2023/03/30 04:12:50;;;;;;;7.53;2.33;;;12.90;77.10;;;;;;5046081;28;20056;-78
2023/03/30 04:15:41;;;;;;;9.63;2.50;;;13.00;77.10;;;;;;5028195;28;20275;-78
2023/03/30 04:18:20;;;;;;;7.93;2.05;;;13.00;77.10;;;;;;5030492;28;20140;-78
2023/03/30 04:21:16;;;;;;;8.43;2.20;;;13.00;77.10;;;;;;5016659;28;20101;-78
2023/03/30 04:23:44;;;;;;;7.20;2.45;;;13.00;77.00;;;;;;5049105;28;20045;-78
2023/03/30 04:26:29;;;;;;;8.37;2.70;;;13.00;77.10;;;;;;5048381;28;20389;-79
2023/03/30 04:29:09;;;;;;;7.95;2.70;;;13.00;76.90;;;;;;5024087;28;20565;-78
2023/03/30 04:32:05;;;;;;;8.65;2.50;;;13.10;76.70;;;;;;5034508;28;20501;-78
2023/03/30 04:34:53;;;;;;;7.18;2.80;;;13.10;76.60;;;;;;5026901;28;20052;-78
2023/03/30 04:37:30;;;;;;;7.07;2.47;;;13.10;76.90;;;;;;5038580;28;20128;-77
2023/03/30 04:40:15;;;;;;;9.10;3.20;;;13.10;77.50;;;;;;5042786;28;20548;-78
2023/03/30 04:43:01;;;;;;;6.95;2.80;;;13.10;78.10;;;;;;5029650;28;20268;-80
2023/03/30 04:45:56;;;;;;;9.07;2.70;;;13.10;78.70;;;;;;5048381;28;20438;-78
2023/03/30 04:48:24;;;;;;;7.38;2.78;;;13.10;79.10;;;;;;5037594;28;20046;-78
2023/03/30 04:51:08;;;;;;;6.72;2.80;;;13.00;79.30;;;;;;5033075;28;20487;-78
2023/03/30 04:53:55;;;;;;;8.17;2.80;;;13.00;79.60;;;;;;5046501;28;20042;-78
2023/03/30 04:56:37;;;;;;;9.57;2.90;;;12.90;79.80;;;;;;5041725;28;20316;-77
2023/03/30 04:59:23;;;;;;;7.35;2.58;;;12.80;80.00;;;;;;5049156;28;20049;-77
2023/03/30 05:02:09;;;;;;;8.18;2.60;;;12.80;80.30;;;;;;5046554;28;20191;-78
2023/03/30 05:05:06;;;;;;;8.98;2.95;;;12.80;80.30;;;;;;5037137;28;20088;-77
2023/03/30 05:07:57;;;;;;;9.00;2.90;;;12.70;80.50;;;;;;5034786;28;20053;-78
2023/03/30 05:10:34;;;;;;;8.30;2.60;;;12.70;80.70;;;;;;5026279;28;20727;-77
2023/03/30 05:13:16;;;;;;;7.50;2.80;;;12.70;80.70;;;;;;5049298;28;21053;-78
2023/03/30 05:16:14;;;;;;;6.82;2.63;;;12.70;80.70;;;;;;5030630;28;20133;-77
2023/03/30 05:19:07;;;;;;;7.43;2.70;;;12.60;80.70;;;;;;5029243;28;20060;-77
2023/03/30 05:21:52;;;;;;;7.10;2.73;;;12.60;80.50;;;;;;5039595;28;20049;-78
2023/03/30 05:24:28;;;;;;;6.75;2.72;;;12.60;80.30;;;;;;5049279;28;20316;-78
2023/03/30 05:27:12;;;;;;;6.78;2.50;;;12.60;80.40;;;;;;5028903;28;20541;-78
2023/03/30 05:29:59;;;;;;;6.03;2.67;;;12.60;80.20;;;;;;5045212;28;20080;-78
2023/03/30 05:33:04;;;;;;;9.02;2.72;;;12.60;80.20;;;;;;4988336;28;20047;-78
2023/03/30 05:35:51;;;;;;;6.23;2.33;;;12.50;80.30;;;;;;5023478;28;20062;-78
2023/03/30 05:38:44;;;;;;;6.78;2.40;;;12.50;80.30;;;;;;5032983;28;20301;-77
2023/03/30 05:41:27;;;;;;;8.75;2.40;;;12.50;80.30;;;;;;5024874;28;20204;-79
2023/03/30 05:44:17;;;;;;;6.78;2.30;;;12.50;80.40;;;;;;5044075;28;20526;-78
2023/03/30 05:47:02;;;;;;;7.53;2.17;;;12.50;80.40;;;;;;5038551;28;20061;-78
2023/03/30 05:49:41;;;;;;;8.03;2.63;;;12.50;80.40;;;;;;5030881;28;20053;-77
2023/03/30 05:52:16;;;;;;;7.13;2.30;;;12.50;80.50;;;;;;5027934;28;20416;-77
2023/03/30 05:55:01;;;;;;;7.68;2.30;;;12.50;80.50;;;;;;5030646;28;20046;-77
2023/03/30 05:57:45;;;;;;;7.53;2.70;;;12.60;80.40;;;;;;5047636;28;20060;-78
2023/03/30 06:00:24;;;;;;;7.03;2.40;;;12.50;80.40;;;;;;5044681;28;20537;-77
2023/03/30 06:03:03;;;;;;;7.37;1.97;;;12.60;80.50;;;;;;5028657;28;20052;-77
2023/03/30 06:05:34;;;;;;;7.78;2.17;;;12.60;80.70;;;;;;5042098;28;20319;-78
2023/03/30 06:08:03;;;;;;;8.23;2.30;;;12.60;81.00;;;;;;5040869;28;20164;-78
2023/03/30 06:10:30;;;;;;;7.13;2.10;;;12.70;81.20;;;;;;5028712;28;20542;-77
2023/03/30 06:13:00;;;;;;;5.95;1.90;;;12.70;81.20;;;;;;5062919;28;20053;-78
2023/03/30 06:15:40;;;;;;;6.23;2.10;;;12.70;81.30;;;;;;5025794;28;20120;-78
2023/03/30 06:18:11;;;;;;;7.15;2.67;;;12.70;81.50;;;;;;5030051;28;20268;-78
2023/03/30 06:20:47;;;;;;;7.60;2.50;;;12.70;81.70;;;;;;5029906;28;20042;-77
2023/03/30 06:23:16;;;;;;;8.73;2.80;;;12.70;81.90;;;;;;5041715;28;20081;-78
2023/03/30 06:25:46;;;;;;;7.60;2.70;;;12.70;82.00;;;;;;5025354;28;20057;-78
2023/03/30 06:28:14;;;;;;;9.40;2.93;;;12.70;81.90;;;;;;5041535;28;20179;-78
2023/03/30 06:30:41;;;;;;;6.07;2.63;;;12.70;82.10;;;;;;5044887;28;20260;-77
2023/03/30 06:33:11;;;;;;;7.00;2.97;;;12.70;82.20;;;;;;5023481;28;20046;-77
2023/03/30 06:35:47;;;;;;;8.77;3.35;;;12.70;82.40;;;;;;5044302;28;20053;-77
2023/03/30 06:38:18;;;;;;;9.60;2.90;;;12.60;82.50;;;;;;5036063;28;20676;-77
2023/03/30 06:40:45;;;;;;;6.53;2.60;;;12.60;82.70;;;;;;5021830;28;20057;-77
2023/03/30 06:43:17;;;;;;;7.88;2.63;;;12.70;82.60;;;;;;5028939;28;20284;-78
2023/03/30 06:45:54;;;;;;;8.07;2.85;;;12.70;82.60;;;;;;5027976;28;20506;-77
2023/03/30 06:48:23;;;;;;;10.48;2.47;;;12.70;82.70;;;;;;5045579;28;20049;-77
2023/03/30 06:51:05;;;;;;;5.47;1.85;;;12.70;82.70;;;;;;5025735;28;20618;-77
2023/03/30 06:53:33;;;;;;;8.87;2.67;;;12.70;82.70;;;;;;5028292;28;20061;-76
2023/03/30 06:56:00;;;;;;;8.73;2.60;;;12.80;82.30;;;;;;5041645;28;20310;-76
2023/03/30 06:58:30;;;;;;;13.75;2.80;;;12.80;82.00;;;;;;5039737;28;20129;-76
2023/03/30 07:00:58;;;;;;;9.88;2.83;;;12.80;81.80;;;;;;5042501;28;20072;-76
2023/03/30 07:03:57;;;;;;;9.75;2.20;;;12.80;81.60;;;;;;5013302;28;20100;-77
2023/03/30 07:06:40;;;;;;;10.20;2.57;;;12.80;81.60;;;;;;5025708;28;20459;-76
2023/03/30 07:09:08;;;;;;;11.02;2.50;;;12.80;81.50;;;;;;5027501;28;20253;-75
2023/03/30 07:11:38;;;;;;;8.60;2.28;;;12.90;81.00;;;;;;5027000;28;20065;-76
2023/03/30 07:14:08;;;;;;;10.43;2.42;;;12.80;81.20;;;;;;5058099;28;20057;-76
2023/03/30 07:16:37;;;;;;;8.85;1.70;;;12.80;81.50;;;;;;5025219;28;20052;-76
2023/03/30 07:19:04;;;;;;;11.23;2.60;;;12.80;81.50;;;;;;5026947;28;20053;-76
2023/03/30 07:21:32;;;;;;;9.27;2.22;;;12.80;81.40;;;;;;5042420;28;20340;-76
2023/03/30 07:24:00;;;;;;;11.23;2.60;;;12.80;81.40;;;;;;5028154;28;20135;-76
2023/03/30 07:26:33;;;;;;;10.23;2.28;;;12.80;81.40;;;;;;5047272;28;20446;-76
2023/03/30 07:29:09;;;;;;;13.90;2.72;;;12.90;81.10;;;;;;5042432;28;20045;-76
2023/03/30 07:31:40;;;;;;;13.77;2.60;;;12.80;81.10;;;;;;5048461;28;20046;-76
2023/03/30 07:34:09;;;;;;;10.18;2.13;;;12.90;80.70;;;;;;5021309;28;20285;-76
2023/03/30 07:36:41;;;;;;;9.40;2.40;;;12.90;80.40;;;;;;5045941;28;20049;-76
2023/03/30 07:39:08;;;;;;;14.05;2.95;;;12.80;80.30;;;;;;5040738;28;20046;-76
2023/03/30 07:41:38;;;;;;;12.20;2.58;;;12.80;80.10;;;;;;5038389;28;20042;-76
2023/03/30 07:44:05;;;;;;;11.17;2.80;;;12.80;80.40;;;;;;5046355;28;20061;-77
2023/03/30 07:46:33;;;;;;;11.38;2.17;;;12.80;80.30;;;;;;5059713;28;20303;-76
2023/03/30 07:49:01;;;;;;;12.55;2.60;;;12.80;80.40;;;;;;5035035;28;20596;-76
2023/03/30 07:51:28;;;;;;;11.55;2.20;;;12.80;80.30;;;;;;5028231;28;20097;-76
2023/03/30 07:54:20;;;;;;;13.88;2.42;;;12.80;80.20;;;;;;5035767;28;20143;-76
2023/03/30 07:57:06;;;;;;;12.63;2.63;;;12.80;79.90;;;;;;5058891;28;20185;-76
2023/03/30 07:59:34;;;;;;;15.68;3.00;;;12.80;79.50;;;;;;5033655;28;20606;-75
2023/03/30 08:02:17;;;;;;;13.32;2.83;;;12.80;79.60;;;;;;5023909;28;21027;-76
2023/03/30 08:04:55;;;;;;;16.00;2.80;;;12.70;79.70;;;;;;5028874;28;20060;-76
2023/03/30 08:07:34;;;;;;;12.60;2.50;;;12.80;79.50;;;;;;5044064;28;20049;-76
2023/03/30 08:10:10;;;;;;;14.63;3.13;;;12.80;79.00;;;;;;5026440;28;20053;-77
2023/03/30 08:12:38;;;;;;;17.30;2.88;;;12.80;79.20;;;;;;5021949;28;20778;-76
2023/03/30 08:15:07;;;;;;;9.70;2.03;;;12.80;79.20;;;;;;5045255;28;20558;-76
2023/03/30 08:17:36;;;;;;;10.88;2.30;;;12.80;78.80;;;;;;5045008;28;20458;-76
2023/03/30 08:20:06;;;;;;;15.15;3.13;;;12.80;79.00;;;;;;5047477;28;20061;-76
2023/03/30 08:22:34;;;;;;;13.53;2.87;;;12.70;79.10;;;;;;5038311;28;20046;-76
2023/03/30 08:25:01;;;;;;;15.38;3.33;;;12.70;79.00;;;;;;5039056;28;20358;-77
2023/03/30 08:27:29;;;;;;;13.90;2.58;;;12.70;78.90;;;;;;5041706;28;20053;-77
2023/03/30 08:29:56;;;;;;;14.07;2.50;;;12.70;78.20;;;;;;5044853;28;20061;-76
2023/03/30 08:32:25;;;;;;;14.32;3.10;;;12.70;78.40;;;;;;5046379;28;20068;-77
2023/03/30 08:34:54;;;;;;;16.87;3.10;;;12.70;78.60;;;;;;5041022;28;20052;-77
2023/03/30 08:37:22;;;;;;;13.07;2.55;;;12.60;78.80;;;;;;5044963;28;20333;-77
2023/03/30 08:39:49;;;;;;;14.82;2.78;;;12.60;79.10;;;;;;5043920;28;20049;-77
2023/03/30 08:42:41;;;;;;;15.88;2.83;;;12.60;79.70;;;;;;5049300;28;20053;-77
2023/03/30 08:45:11;;;;;;;14.52;2.40;;;12.50;79.80;;;;;;5036629;28;20085;-77
2023/03/30 08:47:41;;;;;;;16.57;3.27;;;12.50;80.00;;;;;;5043191;28;20123;-77
2023/03/30 08:50:15;;;;;;;13.82;2.95;;;12.50;80.00;;;;;;5048667;28;20253;-77
2023/03/30 08:52:43;;;;;;;13.93;2.70;;;12.50;79.90;;;;;;5045655;28;20899;-77
2023/03/30 08:55:20;;;;;;;14.13;2.60;;;12.50;80.30;;;;;;5048170;28;20084;-77
2023/03/30 08:57:55;;;;;;;18.27;3.60;;;12.50;80.20;;;;;;5049063;28;20170;-77
2023/03/30 09:00:32;;;;;;;14.57;3.33;;;12.50;79.60;;;;;;5033708;28;20069;-77
2023/03/30 09:03:10;;;;;;;17.23;3.42;;;12.50;80.00;;;;;;5043708;28;20348;-77
2023/03/30 09:05:45;;;;;;;15.80;3.00;;;12.50;80.30;;;;;;5046655;28;20918;-77
2023/03/30 09:08:18;;;;;;;20.15;3.15;;;12.50;80.00;;;;;;5046321;28;20052;-77
2023/03/30 09:10:51;;;;;;;11.88;1.40;;;12.50;79.70;;;;;;5055521;28;20053;-77
2023/03/30 09:13:21;;;;;;;16.43;2.90;;;12.50;79.80;;;;;;5042405;28;20108;-77
2023/03/30 09:15:52;;;;;;;10.13;2.03;;;12.40;80.30;;;;;;5031786;28;20261;-77
2023/03/30 09:18:24;;;;;;;16.90;2.75;;;12.40;80.60;;;;;;5048907;28;20049;-77
2023/03/30 09:20:56;;;;;;;17.55;2.30;;;12.50;80.40;;;;;;5065929;28;20049;-77
2023/03/30 09:23:23;;;;;;;9.52;1.60;;;12.50;80.00;;;;;;5035961;28;20964;-77
2023/03/30 09:25:58;;;;;;;14.57;2.90;;;12.50;79.10;;;;;;5035692;28;20133;-77
2023/03/30 09:28:33;;;;;;;14.75;2.90;;;12.50;77.70;;;;;;5047441;28;20334;-76
2023/03/30 09:31:02;;;;;;;17.50;2.50;;;12.60;76.90;;;;;;5038310;28;20050;-76
2023/03/30 09:33:38;;;;;;;14.02;2.35;;;12.70;76.80;;;;;;5041916;28;20120;-76
2023/03/30 09:36:14;;;;;;;10.95;2.20;;;12.70;76.60;;;;;;5068793;28;20045;-76
2023/03/30 09:38:41;;;;;;;14.33;2.37;;;12.70;75.50;;;;;;5055937;28;21086;-77
2023/03/30 09:41:29;;;;;;;11.38;1.55;;;12.80;74.30;;;;;;5037177;28;20292;-76
2023/03/30 09:44:03;;;;;;;6.40;1.15;;;12.80;74.10;;;;;;5048479;28;20120;-75
2023/03/30 09:46:30;;;;;;;11.38;2.00;;;12.80;73.20;;;;;;5044908;28;20049;-76
2023/03/30 09:49:14;;;;;;;16.67;2.40;;;12.80;72.60;;;;;;5040743;28;20060;-76
2023/03/30 09:51:54;;;;;;;12.07;1.90;;;12.90;72.80;;;;;;5047464;28;20052;-76
2023/03/30 09:54:22;;;;;;;11.85;1.92;;;12.90;73.20;;;;;;5047821;28;20731;-76
2023/03/30 09:56:55;;;;;;;12.05;2.60;;;12.90;73.00;;;;;;5030577;28;20479;-76
2023/03/30 09:59:30;;;;;;;13.57;2.33;;;13.00;72.30;;;;;;5047177;28;20049;-77
2023/03/30 10:02:10;;;;;;;9.88;1.83;;;13.00;71.70;;;;;;5027759;28;21075;-77
2023/03/30 10:04:56;;;;;;;10.53;1.60;;;13.00;71.00;;;;;;5033994;28;20539;-77
2023/03/30 10:07:53;;;;;;;11.73;1.90;;;13.00;70.80;;;;;;5055251;28;20268;-76
2023/03/30 10:10:32;;;;;;;9.88;1.23;;;13.00;70.40;;;;;;5027721;28;20053;-76
2023/03/30 10:13:04;;;;;;;16.23;2.33;;;13.00;70.30;;;;;;5029315;28;20066;-77
2023/03/30 10:15:32;;;;;;;11.93;2.17;;;13.00;70.60;;;;;;5045916;28;20147;-77
2023/03/30 10:18:02;;;;;;;10.83;1.53;;;13.00;71.10;;;;;;5041181;28;20052;-77
2023/03/30 10:20:35;;;;;;;11.65;1.60;;;13.00;70.90;;;;;;5045210;28;20253;-78
2023/03/30 10:23:08;;;;;;;7.32;1.30;;;13.10;70.20;;;;;;5048001;28;20420;-79
2023/03/30 10:25:37;;;;;;;11.68;1.75;;;13.10;69.60;;;;;;5028860;28;20503;-79
2023/03/30 10:28:05;;;;;;;11.55;2.00;;;13.10;70.10;;;;;;5023959;28;20050;-79
2023/03/30 10:30:33;;;;;;;11.87;1.83;;;13.10;70.20;;;;;;5030814;28;20124;-78
2023/03/30 10:33:02;;;;;;;9.98;1.20;;;13.10;69.10;;;;;;5043057;28;20726;-79
2023/03/30 10:35:35;;;;;;;12.27;1.63;;;13.10;69.10;;;;;;5035741;28;20125;-78
2023/03/30 10:38:06;;;;;;;13.45;1.73;;;13.20;69.50;;;;;;5036592;28;20057;-78
2023/03/30 10:40:36;;;;;;;13.18;1.85;;;13.20;69.00;;;;;;5042936;28;20140;-79
2023/03/30 10:43:10;;;;;;;15.57;2.20;;;13.30;69.50;;;;;;5042767;28;20100;-78
2023/03/30 10:45:41;;;;;;;10.45;1.92;;;13.30;69.10;;;;;;5042999;28;20380;-78
2023/03/30 10:48:34;;;;;;;13.30;2.05;;;13.30;68.00;;;;;;5045047;28;20501;-77
2023/03/30 10:51:10;;;;;;;12.80;1.98;;;13.40;68.20;;;;;;5041733;28;20987;-76
2023/03/30 10:53:47;;;;;;;12.48;1.73;;;13.40;68.40;;;;;;5042164;28;20077;-77
2023/03/30 10:56:26;;;;;;;10.57;1.53;;;13.50;67.20;;;;;;5044488;28;20128;-77
2023/03/30 10:59:29;;;;;;;9.30;1.30;;;13.50;66.90;;;;;;5042353;28;20295;-78
2023/03/30 11:02:13;;;;;;;10.10;2.00;;;13.50;67.50;;;;;;5037788;28;20061;-78
2023/03/30 11:04:45;;;;;;;9.55;1.83;;;13.50;66.20;;;;;;5039490;28;20061;-78
2023/03/30 11:07:18;;;;;;;12.07;2.00;;;13.60;66.50;;;;;;5027885;28;20054;-76
2023/03/30 11:09:53;;;;;;;7.17;1.10;;;13.60;67.20;;;;;;5042178;28;20054;-80
2023/03/30 11:12:21;;;;;;;12.35;1.70;;;13.60;68.00;;;;;;5045794;28;20288;-80
2023/03/30 11:14:53;;;;;;;13.23;1.67;;;13.60;67.50;;;;;;5038205;28;20674;-80
2023/03/30 11:17:25;;;;;;;16.00;2.78;;;13.60;67.70;;;;;;5046981;28;20077;-80
2023/03/30 11:19:56;;;;;;;14.00;2.25;;;13.70;68.70;;;;;;5048718;28;20484;-80
2023/03/30 11:22:35;;;;;;;9.93;1.60;;;13.70;68.40;;;;;;5046585;28;20099;-80
2023/03/30 11:25:17;;;;;;;10.38;1.75;;;13.70;68.90;;;;;;5049298;28;20734;-79
2023/03/30 11:27:54;;;;;;;12.57;1.85;;;13.70;69.00;;;;;;5049222;28;21007;-80
2023/03/30 11:30:28;;;;;;;11.98;1.92;;;13.80;68.90;;;;;;5050600;28;20537;-80
2023/03/30 11:33:02;;;;;;;16.52;2.70;;;13.90;67.80;;;;;;5043897;28;20108;-79
2023/03/30 11:35:37;;;;;;;13.70;1.77;;;13.90;68.80;;;;;;5045477;28;20053;-79
2023/03/30 11:38:12;;;;;;;11.27;2.58;;;13.90;68.00;;;;;;5045991;28;20312;-80
2023/03/30 11:40:45;;;;;;;11.35;2.22;;;13.90;68.80;;;;;;5038257;28;20154;-80
2023/03/30 11:43:12;;;;;;;13.80;2.70;;;14.00;67.20;;;;;;5049162;28;20049;-80
2023/03/30 11:45:49;;;;;;;9.07;1.92;;;14.00;66.90;;;;;;5045066;28;20093;-80
2023/03/30 11:48:54;;;;;;;14.03;2.33;;;14.00;67.80;;;;;;5043055;28;20065;-80
2023/03/30 11:51:36;;;;;;;12.68;2.38;;;14.00;67.60;;;;;;4979573;28;20823;-80
2023/03/30 11:54:24;;;;;;;13.25;1.85;;;14.00;67.50;;;;;;5025414;28;20495;-80
2023/03/30 11:57:02;;;;;;;11.48;2.28;;;14.00;67.80;;;;;;5043530;28;20042;-79
2023/03/30 11:59:39;;;;;;;13.32;1.75;;;14.10;66.70;;;;;;5034702;28;20475;-79
2023/03/30 12:02:20;;;;;;;17.57;2.07;;;14.10;68.00;;;;;;5043392;28;20596;-80
2023/03/30 12:04:52;;;;;;;14.75;1.90;;;14.10;67.70;;;;;;5046480;28;20261;-80
2023/03/30 12:07:29;;;;;;;14.00;2.17;;;14.20;67.80;;;;;;5036479;28;20064;-79
2023/03/30 12:10:01;;;;;;;15.63;3.00;;;14.20;68.10;;;;;;5042226;28;20499;-79
2023/03/30 12:12:35;;;;;;;12.77;2.35;;;14.30;67.60;;;;;;5023794;28;20072;-80
2023/03/30 12:15:16;;;;;;;15.50;2.87;;;14.30;67.40;;;;;;5045240;28;20818;-80
2023/03/30 12:17:51;;;;;;;13.32;2.15;;;14.40;66.50;;;;;;5045814;28;20243;-80
2023/03/30 12:20:31;;;;;;;14.68;2.75;;;14.30;65.80;;;;;;5051104;28;20144;-80
2023/03/30 12:23:06;;;;;;;13.52;2.25;;;14.30;66.70;;;;;;5049820;28;20539;-80
2023/03/30 12:25:41;;;;;;;13.23;2.10;;;14.20;67.80;;;;;;5033110;28;20049;-77
2023/03/30 12:28:14;;;;;;;16.60;3.13;;;14.20;66.90;;;;;;5050157;28;20057;-78
2023/03/30 12:30:47;;;;;;;13.27;2.38;;;14.20;66.40;;;;;;5049680;28;20253;-79
2023/03/30 12:33:19;;;;;;;11.50;2.33;;;14.20;67.20;;;;;;5050359;28;20229;-80
2023/03/30 12:35:57;;;;;;;10.70;2.00;;;14.20;66.80;;;;;;5043337;28;20064;-80
2023/03/30 12:38:26;;;;;;;12.90;2.53;;;14.20;67.00;;;;;;5049572;28;20115;-79
2023/03/30 12:41:02;;;;;;;13.67;2.40;;;14.20;66.70;;;;;;5050390;28;20133;-79
2023/03/30 12:43:39;;;;;;;17.55;2.47;;;14.20;66.50;;;;;;5050950;28;20273;-79
2023/03/30 12:46:12;;;;;;;13.18;2.30;;;14.10;67.50;;;;;;5019826;28;20135;-79
2023/03/30 12:48:50;;;;;;;11.00;2.47;;;14.10;66.80;;;;;;5050897;28;20081;-79
2023/03/30 12:51:34;;;;;;;13.57;2.25;;;14.10;67.20;;;;;;5055571;28;20135;-79
2023/03/30 12:54:24;;;;;;;7.87;1.77;;;14.10;67.70;;;;;;5046299;28;20049;-79
2023/03/30 12:56:58;;;;;;;13.80;2.25;;;14.10;68.60;;;;;;5042152;28;20272;-79
2023/03/30 13:00:09;;;;;;;13.68;3.13;;;14.20;68.90;;;;;;5042271;28;20573;-79
2023/03/30 13:02:56;;;;;;;12.50;2.17;;;14.30;67.80;;;;;;5025662;28;20041;-80
2023/03/30 13:05:26;;;;;;;11.93;2.30;;;14.30;68.60;;;;;;5046688;28;20041;-79
2023/03/30 13:07:55;;;;;;;12.97;1.90;;;14.40;68.40;;;;;;5049024;28;20049;-79
2023/03/30 13:10:42;;;;;;;16.92;2.50;;;14.40;68.50;;;;;;5051122;28;20276;-80
2023/03/30 13:13:23;;;;;;;19.65;3.55;;;14.50;67.80;;;;;;5067533;28;20155;-80
2023/03/30 13:15:55;;;;;;;20.30;3.42;;;14.60;67.20;;;;;;5063802;28;20045;-79
2023/03/30 13:18:31;;;;;;;11.80;2.17;;;14.70;66.60;;;;;;5050144;28;20096;-79
2023/03/30 13:21:20;;;;;;;13.77;2.83;;;14.70;66.50;;;;;;5048921;28;20100;-79
2023/03/30 13:24:01;;;;;;;13.75;2.17;;;14.70;65.90;;;;;;5041965;28;20262;-79
2023/03/30 13:26:41;;;;;;;13.75;1.98;;;14.70;66.10;;;;;;5030872;28;20501;-78